LFPM 131230Z AUTO 04007KT 350V120 CAVOK 10/M05 Q1032

Les avions qui composent notre flotte

Avion Robin DR400-180

Idéal pour les voyages, équipé d'un Pilote Automatique

F-GGJV


F-GGJV Planche